createdAt,value
2023-02-26T00:02:02.389Z,6.45
2023-02-26T00:05:06.388Z,6.53
2023-02-26T00:08:09.145Z,5.03
2023-02-26T00:11:12.667Z,6.37
2023-02-26T00:14:16.259Z,6.43
2023-02-26T00:17:37.642Z,6.82
2023-02-26T00:20:40.707Z,8.18
2023-02-26T00:23:43.925Z,6.35
2023-02-26T00:26:46.508Z,7.60
2023-02-26T00:29:50.133Z,7.87
2023-02-26T00:32:52.985Z,6.87
2023-02-26T00:36:24.297Z,8.00
2023-02-26T00:39:39.259Z,5.87
2023-02-26T00:42:42.383Z,6.60
2023-02-26T00:46:06.499Z,7.30
2023-02-26T00:49:24.091Z,7.62
2023-02-26T00:52:36.655Z,7.57
2023-02-26T00:55:39.749Z,6.72
2023-02-26T00:58:42.653Z,7.77
2023-02-26T01:01:45.987Z,5.82
2023-02-26T01:04:49.301Z,9.07
2023-02-26T01:07:56.837Z,6.97
2023-02-26T01:11:00.270Z,6.72
2023-02-26T01:14:05.095Z,6.93
2023-02-26T01:17:13.735Z,6.62
2023-02-26T01:20:22.735Z,7.93
2023-02-26T01:23:26.874Z,8.68
2023-02-26T01:26:30.110Z,7.62
2023-02-26T01:29:33.345Z,9.13
2023-02-26T01:32:51.804Z,8.05
2023-02-26T01:36:08.791Z,7.32
2023-02-26T01:39:40.767Z,8.32
2023-02-26T01:42:45.651Z,7.22
2023-02-26T01:46:07.349Z,7.40
2023-02-26T01:49:15.932Z,8.15
2023-02-26T01:52:34.768Z,8.75
2023-02-26T01:55:37.596Z,8.73
2023-02-26T01:58:40.943Z,7.03
2023-02-26T02:01:44.221Z,8.17
2023-02-26T02:04:48.381Z,7.65
2023-02-26T02:07:51.079Z,7.10
2023-02-26T02:10:54.515Z,7.10
2023-02-26T02:14:19.695Z,7.07
2023-02-26T02:17:32.568Z,6.40
2023-02-26T02:20:41.071Z,7.28
2023-02-26T02:23:57.950Z,7.20
2023-02-26T02:27:09.450Z,8.05
2023-02-26T02:30:15.379Z,7.82
2023-02-26T02:33:21.124Z,6.80
2023-02-26T02:36:33.739Z,5.35
2023-02-26T02:39:47.998Z,5.68
2023-02-26T02:43:14.791Z,6.62
2023-02-26T02:46:27.267Z,5.85
2023-02-26T02:49:36.629Z,6.07
2023-02-26T02:52:44.993Z,5.93
2023-02-26T02:55:55.100Z,5.95
2023-02-26T02:59:06.685Z,7.40
2023-02-26T03:02:21.551Z,5.45
2023-02-26T03:05:24.437Z,7.57
2023-02-26T03:08:31.710Z,6.93
2023-02-26T03:11:34.717Z,7.18
2023-02-26T03:14:38.368Z,6.35
2023-02-26T03:18:01.051Z,7.20
2023-02-26T03:21:13.964Z,6.77
2023-02-26T03:24:22.988Z,7.53
2023-02-26T03:28:21.727Z,6.40
2023-02-26T03:31:37.485Z,6.70
2023-02-26T03:34:51.058Z,7.37
2023-02-26T03:37:58.162Z,7.30
2023-02-26T03:41:27.675Z,7.68
2023-02-26T03:44:34.264Z,6.78
2023-02-26T03:47:39.786Z,6.93
2023-02-26T03:50:46.796Z,6.60
2023-02-26T03:53:58.925Z,7.17
2023-02-26T03:57:01.803Z,9.32
2023-02-26T04:00:10.234Z,6.85
2023-02-26T04:03:28.647Z,7.22
2023-02-26T04:06:32.275Z,6.65
2023-02-26T04:09:35.146Z,6.20
2023-02-26T04:12:38.031Z,6.47
2023-02-26T04:15:40.926Z,7.57
2023-02-26T04:18:44.790Z,6.93
2023-02-26T04:21:47.404Z,5.43
2023-02-26T04:24:50.950Z,7.87
2023-02-26T04:27:53.812Z,5.62
2023-02-26T04:30:56.940Z,6.32
2023-02-26T04:33:59.764Z,5.55
2023-02-26T04:37:02.558Z,6.87
2023-02-26T04:40:06.251Z,6.73
2023-02-26T04:43:09.624Z,5.65
2023-02-26T04:46:13.585Z,6.97
2023-02-26T04:49:16.900Z,6.05
2023-02-26T04:52:20.151Z,7.37
2023-02-26T04:55:23.739Z,6.13
2023-02-26T04:58:26.468Z,5.70
2023-02-26T05:01:31.610Z,6.05
2023-02-26T05:04:34.426Z,6.20
2023-02-26T05:07:38.124Z,5.22
2023-02-26T05:10:43.227Z,5.40
2023-02-26T05:13:46.033Z,6.90
2023-02-26T05:16:48.669Z,6.22
2023-02-26T05:19:51.767Z,9.02
2023-02-26T05:22:54.595Z,7.10
2023-02-26T05:25:58.664Z,5.73
2023-02-26T05:29:02.381Z,7.25
2023-02-26T05:32:05.393Z,7.00
2023-02-26T05:35:10.291Z,8.18
2023-02-26T05:38:13.115Z,6.07
2023-02-26T05:41:15.892Z,6.83
2023-02-26T05:44:18.977Z,7.93
2023-02-26T05:47:21.542Z,7.53
2023-02-26T05:50:24.623Z,7.65
2023-02-26T05:53:27.224Z,7.30
2023-02-26T05:56:30.132Z,6.70
2023-02-26T05:59:32.751Z,9.07
2023-02-26T06:02:35.646Z,8.38
2023-02-26T06:05:38.578Z,8.68
2023-02-26T06:08:41.322Z,9.80
2023-02-26T06:11:44.385Z,10.93
2023-02-26T06:14:46.848Z,9.25
2023-02-26T06:17:49.860Z,8.98
2023-02-26T06:20:53.301Z,10.27
2023-02-26T06:23:56.206Z,9.65
2023-02-26T06:26:58.766Z,15.20
2023-02-26T06:30:02.220Z,17.27
2023-02-26T06:33:06.434Z,23.52
2023-02-26T06:36:09.454Z,17.12
2023-02-26T06:39:12.779Z,11.52
2023-02-26T06:42:21.305Z,10.47
2023-02-26T06:45:25.276Z,12.10
2023-02-26T06:48:28.172Z,7.35
2023-02-26T06:51:31.065Z,8.65
2023-02-26T06:54:33.972Z,8.63
2023-02-26T06:57:36.620Z,10.00
2023-02-26T07:00:40.476Z,9.98
2023-02-26T07:03:43.239Z,9.32
2023-02-26T07:06:46.060Z,9.70
2023-02-26T07:09:49.343Z,9.15
2023-02-26T07:12:52.314Z,11.30
2023-02-26T07:15:55.003Z,13.73
2023-02-26T07:18:57.879Z,8.77
2023-02-26T07:22:00.665Z,8.13
2023-02-26T07:25:07.348Z,6.18
2023-02-26T07:28:10.056Z,8.43
2023-02-26T07:31:13.039Z,6.68
2023-02-26T07:34:15.858Z,6.57
2023-02-26T07:37:19.104Z,7.50
2023-02-26T07:40:21.752Z,6.10
2023-02-26T07:43:24.824Z,7.00
2023-02-26T07:46:28.342Z,7.32
2023-02-26T07:49:32.634Z,6.28
2023-02-26T07:52:35.155Z,5.70
2023-02-26T07:55:38.002Z,6.25
2023-02-26T07:58:40.553Z,6.73
2023-02-26T08:01:43.422Z,7.40
2023-02-26T08:04:46.495Z,5.95
2023-02-26T08:07:49.128Z,6.47
2023-02-26T08:10:52.332Z,6.68
2023-02-26T08:13:54.834Z,6.23
2023-02-26T08:16:57.880Z,7.60
2023-02-26T08:20:00.667Z,6.22
2023-02-26T08:23:06.520Z,6.00
2023-02-26T08:26:11.010Z,7.60
2023-02-26T08:29:14.360Z,6.27
2023-02-26T08:32:19.701Z,5.50
2023-02-26T08:35:23.030Z,5.93
2023-02-26T08:38:26.811Z,6.12
2023-02-26T08:41:32.201Z,5.37
2023-02-26T08:44:35.138Z,6.30
2023-02-26T08:47:42.319Z,6.45
2023-02-26T08:50:52.077Z,5.47
2023-02-26T08:53:54.976Z,6.30
2023-02-26T08:56:57.903Z,7.75
2023-02-26T09:00:00.844Z,6.10
2023-02-26T09:03:03.591Z,4.95
2023-02-26T09:06:06.650Z,6.30
2023-02-26T09:09:10.203Z,6.75
2023-02-26T09:12:13.403Z,6.05
2023-02-26T09:15:16.233Z,6.37
2023-02-26T09:18:19.280Z,6.62
2023-02-26T09:21:21.969Z,6.00
2023-02-26T09:24:27.347Z,5.55
2023-02-26T09:27:29.971Z,6.18
2023-02-26T09:30:33.337Z,6.73
2023-02-26T09:33:36.628Z,6.28
2023-02-26T09:36:40.148Z,6.65
2023-02-26T09:39:42.710Z,6.45
2023-02-26T09:43:11.556Z,8.63
2023-02-26T09:46:22.145Z,6.77
2023-02-26T09:49:47.005Z,9.48
2023-02-26T09:53:10.111Z,7.75
2023-02-26T09:56:21.084Z,6.43
2023-02-26T09:59:23.944Z,6.05
2023-02-26T10:02:38.446Z,6.20
2023-02-26T10:06:00.035Z,7.55
2023-02-26T10:09:36.589Z,6.68
2023-02-26T10:12:42.179Z,6.18
2023-02-26T10:15:45.011Z,7.47
2023-02-26T10:18:53.032Z,7.23
2023-02-26T10:22:05.389Z,8.40
2023-02-26T10:25:13.704Z,9.52
2023-02-26T10:28:41.100Z,9.80
2023-02-26T10:32:02.273Z,10.75
2023-02-26T10:35:17.815Z,11.53
2023-02-26T10:38:26.045Z,9.55
2023-02-26T10:41:31.422Z,10.30
2023-02-26T10:44:46.057Z,10.63
2023-02-26T10:47:48.415Z,11.43
2023-02-26T10:50:53.866Z,10.33
2023-02-26T10:54:04.519Z,10.70
2023-02-26T10:57:17.759Z,10.32
2023-02-26T11:00:20.905Z,8.38
2023-02-26T11:03:30.410Z,9.32
2023-02-26T11:06:51.043Z,10.93
2023-02-26T11:09:54.921Z,7.12
2023-02-26T11:12:58.556Z,11.32
2023-02-26T11:16:14.688Z,8.05
2023-02-26T11:19:17.922Z,7.50
2023-02-26T11:22:21.794Z,8.27
2023-02-26T11:25:28.999Z,7.80
2023-02-26T11:28:36.476Z,7.18
2023-02-26T11:31:41.943Z,6.70
2023-02-26T11:34:50.766Z,6.80
2023-02-26T11:37:57.710Z,7.00
2023-02-26T11:41:01.972Z,7.50
2023-02-26T11:44:11.400Z,8.07
2023-02-26T11:47:16.818Z,7.10
2023-02-26T11:50:23.066Z,8.38
2023-02-26T11:53:33.054Z,11.27
2023-02-26T11:56:43.204Z,11.80
2023-02-26T11:59:51.338Z,11.85
2023-02-26T12:03:01.971Z,11.12
2023-02-26T12:06:05.030Z,10.23
2023-02-26T12:09:12.955Z,9.73
2023-02-26T12:12:37.347Z,10.25
2023-02-26T12:15:51.486Z,10.45
2023-02-26T12:19:01.900Z,10.55
2023-02-26T12:22:14.527Z,9.60
2023-02-26T12:25:23.392Z,11.00
2023-02-26T12:28:47.626Z,8.75
2023-02-26T12:32:13.937Z,10.63
2023-02-26T12:35:25.442Z,10.30
2023-02-26T12:38:40.871Z,9.80
2023-02-26T12:41:49.355Z,9.90
2023-02-26T12:45:29.739Z,9.20
2023-02-26T12:49:00.693Z,10.13
2023-02-26T12:52:24.873Z,11.50
2023-02-26T12:55:55.328Z,8.23
2023-02-26T12:59:14.145Z,8.87
2023-02-26T13:03:08.305Z,7.87
2023-02-26T13:06:19.927Z,7.00
2023-02-26T13:10:08.682Z,7.15
2023-02-26T13:13:52.564Z,7.97
2023-02-26T13:17:01.310Z,6.53
2023-02-26T13:20:13.753Z,6.40
2023-02-26T13:23:20.633Z,6.75
2023-02-26T13:26:25.023Z,7.43
2023-02-26T13:29:31.304Z,7.30
2023-02-26T13:32:35.872Z,7.87
2023-02-26T13:35:41.988Z,5.85
2023-02-26T13:39:05.115Z,7.45
2023-02-26T13:42:11.606Z,6.03
2023-02-26T13:45:15.230Z,6.15
2023-02-26T13:48:48.777Z,6.27
2023-02-26T13:51:54.011Z,7.12
2023-02-26T13:54:59.457Z,5.15
2023-02-26T13:58:18.133Z,8.45
2023-02-26T14:01:34.233Z,6.68
2023-02-26T14:04:51.874Z,8.67
2023-02-26T14:07:57.632Z,8.43
2023-02-26T14:11:04.526Z,5.95
2023-02-26T14:14:13.252Z,6.12
2023-02-26T14:17:18.656Z,6.95
2023-02-26T14:20:25.108Z,5.93
2023-02-26T14:23:48.120Z,6.20
2023-02-26T14:27:09.349Z,9.95
2023-02-26T14:30:18.117Z,6.37
2023-02-26T14:33:29.383Z,12.40
2023-02-26T14:36:36.812Z,8.23
2023-02-26T14:39:43.692Z,7.30
2023-02-26T14:42:58.448Z,6.37
2023-02-26T14:46:02.541Z,7.35
2023-02-26T14:49:07.405Z,6.80
2023-02-26T14:52:21.303Z,7.27
2023-02-26T14:55:39.544Z,6.60
2023-02-26T14:59:01.664Z,6.95
2023-02-26T15:02:29.125Z,6.28
2023-02-26T15:06:10.250Z,7.60
2023-02-26T15:09:21.773Z,7.03
2023-02-26T15:12:43.112Z,7.28
2023-02-26T15:15:54.177Z,7.90
2023-02-26T15:19:20.005Z,7.18
2023-02-26T15:23:14.604Z,7.37
2023-02-26T15:26:34.345Z,7.03
2023-02-26T15:29:39.118Z,5.78
2023-02-26T15:32:42.425Z,6.45
2023-02-26T15:35:45.691Z,6.68
2023-02-26T15:38:54.116Z,6.32
2023-02-26T15:41:57.648Z,6.23
2023-02-26T15:45:02.202Z,6.90
2023-02-26T15:48:13.018Z,7.10
2023-02-26T15:51:17.001Z,7.03
2023-02-26T15:54:22.500Z,7.53
2023-02-26T15:57:26.668Z,7.60
2023-02-26T16:00:33.829Z,9.27
2023-02-26T16:03:38.581Z,6.85
2023-02-26T16:06:45.974Z,8.07
2023-02-26T16:09:54.237Z,6.47
2023-02-26T16:12:58.040Z,6.90
2023-02-26T16:16:05.605Z,7.30
2023-02-26T16:19:13.774Z,7.03
2023-02-26T16:22:36.082Z,7.28
2023-02-26T16:25:44.174Z,7.60
2023-02-26T16:28:57.181Z,7.13
2023-02-26T16:32:02.835Z,6.93
2023-02-26T16:35:16.840Z,8.07
2023-02-26T16:38:28.427Z,7.47
2023-02-26T16:41:35.218Z,6.25
2023-02-26T16:44:45.234Z,8.77
2023-02-26T16:47:53.186Z,9.18
2023-02-26T16:51:07.056Z,6.35
2023-02-26T16:54:19.520Z,5.82
2023-02-26T16:57:40.372Z,7.65
2023-02-26T17:00:52.414Z,7.70
2023-02-26T17:04:01.107Z,7.72
2023-02-26T17:07:37.105Z,6.90
2023-02-26T17:10:45.966Z,6.93
2023-02-26T17:14:22.531Z,6.87
2023-02-26T17:17:25.707Z,8.93
2023-02-26T17:20:30.539Z,8.98
2023-02-26T17:23:37.288Z,9.10
2023-02-26T17:26:40.588Z,8.80
2023-02-26T17:29:45.813Z,6.87
2023-02-26T17:32:49.440Z,8.93
2023-02-26T17:35:52.816Z,7.70
2023-02-26T17:39:01.233Z,7.12
2023-02-26T17:42:04.442Z,7.78
2023-02-26T17:45:08.168Z,9.20
2023-02-26T17:48:11.500Z,9.43
2023-02-26T17:51:16.096Z,10.00
2023-02-26T17:54:19.111Z,9.02
2023-02-26T17:57:23.296Z,6.87
2023-02-26T18:00:26.823Z,7.05
2023-02-26T18:03:30.243Z,8.20
2023-02-26T18:06:35.169Z,10.00
2023-02-26T18:09:38.544Z,10.45
2023-02-26T18:12:41.673Z,7.47
2023-02-26T18:15:45.419Z,9.68
2023-02-26T18:18:48.629Z,9.77
2023-02-26T18:21:51.583Z,10.90
2023-02-26T18:24:55.391Z,10.45
2023-02-26T18:28:00.443Z,9.75
2023-02-26T18:31:08.755Z,9.90
2023-02-26T18:34:13.280Z,9.47
2023-02-26T18:37:18.624Z,11.77
2023-02-26T18:40:24.462Z,9.40
2023-02-26T18:43:27.831Z,12.15
2023-02-26T18:46:31.155Z,12.82
2023-02-26T18:49:34.163Z,8.57
2023-02-26T18:52:37.270Z,12.02
2023-02-26T18:55:40.121Z,9.65
2023-02-26T18:58:44.080Z,11.12
2023-02-26T19:01:47.965Z,10.05
2023-02-26T19:04:51.421Z,9.67
2023-02-26T19:07:54.968Z,11.57
2023-02-26T19:11:00.346Z,11.25
2023-02-26T19:14:03.304Z,9.45
2023-02-26T19:17:06.612Z,11.32
2023-02-26T19:20:11.064Z,9.27
2023-02-26T19:23:15.043Z,9.35
2023-02-26T19:26:18.575Z,13.73
2023-02-26T19:29:21.990Z,12.75
2023-02-26T19:32:26.618Z,12.73
2023-02-26T19:35:30.782Z,9.50
2023-02-26T19:38:33.569Z,18.65
2023-02-26T19:41:36.808Z,18.00
2023-02-26T19:44:40.109Z,13.95
2023-02-26T19:47:43.588Z,12.43
2023-02-26T19:50:46.584Z,13.93
2023-02-26T19:53:50.487Z,14.65
2023-02-26T19:56:53.408Z,13.07
2023-02-26T19:59:56.359Z,9.63
2023-02-26T20:02:59.234Z,10.45
2023-02-26T20:06:02.579Z,14.00
2023-02-26T20:09:07.285Z,11.55
2023-02-26T20:12:10.575Z,15.48
2023-02-26T20:15:14.052Z,12.50
2023-02-26T20:18:17.562Z,12.10
2023-02-26T20:21:22.120Z,11.03
2023-02-26T20:24:26.446Z,10.32
2023-02-26T20:27:29.256Z,11.30
2023-02-26T20:30:32.874Z,9.85
2023-02-26T20:33:38.449Z,8.57
2023-02-26T20:36:44.270Z,12.13
2023-02-26T20:39:47.292Z,9.48
2023-02-26T20:42:50.613Z,9.15
2023-02-26T20:45:55.193Z,9.30
2023-02-26T20:48:59.845Z,9.00
2023-02-26T20:52:03.311Z,10.53
2023-02-26T20:55:07.154Z,8.82
2023-02-26T20:58:12.789Z,9.80
2023-02-26T21:01:15.949Z,9.57
2023-02-26T21:04:19.747Z,8.68
2023-02-26T21:07:22.829Z,8.40
2023-02-26T21:10:26.480Z,8.90
2023-02-26T21:13:29.513Z,10.02
2023-02-26T21:16:32.462Z,8.90
2023-02-26T21:19:36.151Z,6.57
2023-02-26T21:22:39.746Z,8.27
2023-02-26T21:25:43.359Z,8.27
2023-02-26T21:28:48.275Z,7.65
2023-02-26T21:31:56.312Z,8.65
2023-02-26T21:34:59.360Z,9.38
2023-02-26T21:38:02.653Z,8.10
2023-02-26T21:41:05.692Z,10.32
2023-02-26T21:44:08.982Z,7.55
2023-02-26T21:47:13.145Z,8.10
2023-02-26T21:50:16.448Z,7.30
2023-02-26T21:53:19.222Z,6.87
2023-02-26T21:56:23.504Z,6.65
2023-02-26T21:59:26.187Z,6.97
2023-02-26T22:02:31.184Z,6.62
2023-02-26T22:05:34.401Z,6.00
2023-02-26T22:08:37.017Z,5.90
2023-02-26T22:11:40.047Z,6.53
2023-02-26T22:14:43.181Z,7.97
2023-02-26T22:17:46.016Z,5.82
2023-02-26T22:20:48.877Z,6.47
2023-02-26T22:23:52.472Z,6.17
2023-02-26T22:26:54.938Z,6.10
2023-02-26T22:29:57.869Z,5.22
2023-02-26T22:33:00.699Z,6.20
2023-02-26T22:36:03.983Z,7.53
2023-02-26T22:39:06.703Z,6.60
2023-02-26T22:42:10.113Z,5.15
2023-02-26T22:45:13.590Z,6.60
2023-02-26T22:48:17.636Z,7.72
2023-02-26T22:51:20.136Z,5.40
2023-02-26T22:54:23.686Z,6.10
2023-02-26T22:57:26.272Z,6.45
2023-02-26T23:00:29.230Z,6.55
2023-02-26T23:03:32.179Z,6.25
2023-02-26T23:06:36.653Z,6.00
2023-02-26T23:09:41.329Z,7.27
2023-02-26T23:12:44.618Z,8.02
2023-02-26T23:15:47.216Z,7.25
2023-02-26T23:18:50.320Z,6.15
2023-02-26T23:21:53.130Z,5.75
2023-02-26T23:24:56.127Z,8.03
2023-02-26T23:27:58.827Z,6.10
2023-02-26T23:31:02.076Z,5.15
2023-02-26T23:34:07.052Z,6.85
2023-02-26T23:37:10.241Z,6.45
2023-02-26T23:40:14.672Z,6.37
2023-02-26T23:43:17.711Z,8.20
2023-02-26T23:46:20.378Z,7.30
2023-02-26T23:49:23.242Z,6.43
2023-02-26T23:52:26.047Z,5.18
2023-02-26T23:55:29.007Z,6.27
2023-02-26T23:58:31.763Z,5.30
